createdAt,value
2023-02-08T00:00:05.521Z,26.65
2023-02-08T00:02:35.472Z,25.88
2023-02-08T00:05:03.456Z,25.02
2023-02-08T00:07:32.748Z,24.10
2023-02-08T00:10:00.687Z,24.35
2023-02-08T00:12:29.353Z,24.55
2023-02-08T00:14:57.407Z,25.30
2023-02-08T00:17:25.320Z,24.98
2023-02-08T00:19:53.907Z,25.73
2023-02-08T00:22:21.784Z,26.85
2023-02-08T00:24:52.454Z,26.05
2023-02-08T00:27:21.160Z,24.92
2023-02-08T00:29:49.038Z,24.95
2023-02-08T00:32:17.069Z,25.83
2023-02-08T00:34:44.931Z,26.92
2023-02-08T00:37:12.810Z,26.35
2023-02-08T00:39:40.775Z,26.42
2023-02-08T00:42:09.959Z,25.80
2023-02-08T00:44:37.901Z,25.75
2023-02-08T00:47:05.934Z,26.52
2023-02-08T00:49:33.919Z,27.85
2023-02-08T00:52:01.765Z,27.65
2023-02-08T00:54:29.925Z,27.20
2023-02-08T00:56:57.808Z,28.77
2023-02-08T00:59:27.803Z,27.42
2023-02-08T01:04:24.630Z,26.73
2023-02-08T01:06:52.540Z,27.08
2023-02-08T01:09:20.537Z,26.08
2023-02-08T01:14:18.259Z,25.80
2023-02-08T01:16:47.705Z,25.92
2023-02-08T01:19:15.656Z,25.30
2023-02-08T01:21:44.345Z,25.73
2023-02-08T01:24:12.372Z,26.42
2023-02-08T01:26:40.714Z,25.77
2023-02-08T01:29:09.751Z,26.00
2023-02-08T01:31:39.869Z,26.10
2023-02-08T01:34:10.221Z,26.33
2023-02-08T01:36:39.293Z,24.83
2023-02-08T01:39:11.411Z,25.40
2023-02-08T01:41:43.564Z,25.63
2023-02-08T01:44:44.710Z,25.05
2023-02-08T01:47:12.910Z,25.33
2023-02-08T01:49:42.200Z,25.75
2023-02-08T01:52:13.244Z,25.17
2023-02-08T01:54:45.776Z,23.42
2023-02-08T01:57:13.931Z,24.17
2023-02-08T01:59:45.491Z,24.67
2023-02-08T02:02:18.737Z,24.58
2023-02-08T02:04:51.517Z,24.75
2023-02-08T02:07:21.031Z,26.50
2023-02-08T02:09:54.478Z,23.98
2023-02-08T02:12:22.623Z,24.92
2023-02-08T02:14:52.087Z,24.90
2023-02-08T02:17:20.902Z,23.00
2023-02-08T02:19:58.418Z,24.33
2023-02-08T02:23:03.781Z,23.70
2023-02-08T02:26:01.678Z,23.65
2023-02-08T02:29:10.301Z,22.58
2023-02-08T02:31:56.154Z,23.40
2023-02-08T02:34:32.002Z,23.67
2023-02-08T02:37:07.157Z,23.15
2023-02-08T02:39:42.325Z,23.85
2023-02-08T02:42:29.110Z,23.48
2023-02-08T02:45:10.852Z,23.83
2023-02-08T02:47:48.759Z,24.95
2023-02-08T02:50:25.182Z,21.73
2023-02-08T02:53:01.482Z,23.27
2023-02-08T02:55:32.102Z,23.52
2023-02-08T02:58:02.903Z,24.17
2023-02-08T03:00:32.687Z,22.60
2023-02-08T03:03:02.002Z,21.35
2023-02-08T03:05:30.964Z,24.30
2023-02-08T03:08:22.029Z,22.40
2023-02-08T03:11:15.686Z,21.77
2023-02-08T03:14:16.847Z,21.30
2023-02-08T03:17:01.816Z,23.20
2023-02-08T03:19:37.659Z,21.38
2023-02-08T03:22:14.365Z,21.73
2023-02-08T03:24:50.392Z,20.48
2023-02-08T03:27:26.091Z,22.33
2023-02-08T03:30:00.763Z,22.35
2023-02-08T03:32:37.184Z,21.42
2023-02-08T03:35:11.352Z,21.00
2023-02-08T03:37:42.418Z,21.52
2023-02-08T03:40:15.057Z,22.23
2023-02-08T03:42:46.001Z,21.05
2023-02-08T03:45:19.856Z,21.40
2023-02-08T03:47:50.962Z,20.25
2023-02-08T03:50:23.041Z,21.58
2023-02-08T03:52:53.602Z,21.20
2023-02-08T03:55:24.275Z,19.92
2023-02-08T03:57:57.440Z,22.48
2023-02-08T04:00:26.033Z,20.95
2023-02-08T04:02:58.625Z,21.77
2023-02-08T04:05:29.059Z,20.95
2023-02-08T04:07:56.937Z,20.83
2023-02-08T04:10:24.873Z,20.35
2023-02-08T04:12:52.842Z,21.40
2023-02-08T04:15:22.160Z,21.23
2023-02-08T04:17:50.087Z,20.50
2023-02-08T04:20:18.159Z,20.27
2023-02-08T04:22:47.488Z,20.70
2023-02-08T04:25:15.811Z,20.73
2023-02-08T04:27:43.729Z,21.70
2023-02-08T04:30:13.381Z,22.00
2023-02-08T04:32:41.268Z,21.42
2023-02-08T04:35:09.553Z,20.17
2023-02-08T04:37:37.492Z,23.40
2023-02-08T04:40:07.623Z,22.25
2023-02-08T04:42:36.291Z,22.58
2023-02-08T04:45:04.521Z,22.02
2023-02-08T04:47:32.435Z,21.33
2023-02-08T04:50:00.459Z,21.55
2023-02-08T04:52:28.538Z,22.55
2023-02-08T04:54:56.488Z,21.35
2023-02-08T04:57:25.677Z,21.52
2023-02-08T04:59:53.779Z,21.63
2023-02-08T05:02:21.637Z,21.20
2023-02-08T05:04:49.604Z,24.23
2023-02-08T05:07:17.522Z,24.35
2023-02-08T05:09:45.524Z,23.42
2023-02-08T05:12:13.437Z,23.58
2023-02-08T05:14:42.739Z,22.90
2023-02-08T05:17:10.708Z,23.42
2023-02-08T05:19:38.640Z,22.70
2023-02-08T05:22:06.445Z,22.80
2023-02-08T05:24:34.369Z,22.83
2023-02-08T05:27:02.174Z,22.38
2023-02-08T05:29:30.171Z,23.10
2023-02-08T05:31:59.426Z,24.00
2023-02-08T05:34:27.317Z,22.27
2023-02-08T05:36:56.050Z,23.10
2023-02-08T05:39:23.869Z,21.85
2023-02-08T05:41:52.028Z,24.13
2023-02-08T05:44:20.018Z,23.23
2023-02-08T05:46:48.196Z,21.73
2023-02-08T05:49:17.503Z,23.40
2023-02-08T05:51:45.407Z,22.65
2023-02-08T05:54:13.250Z,21.63
2023-02-08T05:56:41.117Z,21.95
2023-02-08T05:59:10.090Z,23.92
2023-02-08T06:01:38.633Z,25.10
2023-02-08T06:04:07.153Z,25.38
2023-02-08T06:06:36.421Z,24.95
2023-02-08T06:09:04.868Z,23.92
2023-02-08T06:11:33.077Z,23.27
2023-02-08T06:14:01.007Z,24.20
2023-02-08T06:16:28.986Z,22.10
2023-02-08T06:18:57.029Z,23.17
2023-02-08T06:21:24.938Z,22.73
2023-02-08T06:23:54.183Z,21.92
2023-02-08T06:26:22.419Z,23.65
2023-02-08T06:28:50.274Z,21.85
2023-02-08T06:31:18.150Z,22.20
2023-02-08T06:33:46.231Z,23.77
2023-02-08T06:36:14.283Z,22.80
2023-02-08T06:38:42.371Z,22.85
2023-02-08T06:41:11.681Z,23.30
2023-02-08T06:43:40.872Z,23.90
2023-02-08T06:46:08.804Z,23.13
2023-02-08T06:48:37.190Z,22.58
2023-02-08T06:51:05.294Z,23.73
2023-02-08T06:53:33.595Z,24.77
2023-02-08T06:56:01.377Z,23.60
2023-02-08T06:58:31.459Z,23.60
2023-02-08T07:03:27.045Z,24.58
2023-02-08T07:06:04.608Z,25.13
2023-02-08T07:08:33.638Z,25.08
2023-02-08T07:11:01.754Z,25.50
2023-02-08T07:13:30.971Z,24.52
2023-02-08T07:15:58.790Z,23.85
2023-02-08T07:18:26.704Z,25.10
2023-02-08T07:20:54.388Z,28.38
2023-02-08T07:23:22.264Z,33.10
2023-02-08T07:25:58.334Z,33.60
2023-02-08T07:28:26.337Z,31.25
2023-02-08T07:30:55.828Z,29.15
2023-02-08T07:33:24.815Z,26.63
2023-02-08T07:35:53.297Z,29.10
2023-02-08T07:38:21.092Z,27.58
2023-02-08T07:40:48.980Z,30.35
2023-02-08T07:43:16.821Z,28.45
2023-02-08T07:45:56.230Z,29.08
2023-02-08T07:48:24.117Z,30.67
2023-02-08T07:50:51.912Z,32.78
2023-02-08T07:53:20.608Z,33.60
2023-02-08T07:55:48.386Z,34.28
2023-02-08T07:58:16.288Z,34.55
2023-02-08T08:00:44.108Z,33.95
2023-02-08T08:03:13.344Z,34.20
2023-02-08T08:05:42.025Z,31.98
2023-02-08T08:08:10.563Z,33.83
2023-02-08T08:10:39.440Z,43.97
2023-02-08T08:13:07.553Z,39.33
2023-02-08T08:15:35.392Z,39.08
2023-02-08T08:18:03.158Z,34.63
2023-02-08T08:20:32.603Z,42.22
2023-02-08T08:23:01.525Z,30.80
2023-02-08T08:25:29.447Z,29.92
2023-02-08T08:27:57.736Z,29.45
2023-02-08T08:30:25.954Z,30.70
2023-02-08T08:32:53.888Z,30.85
2023-02-08T08:35:21.752Z,31.65
2023-02-08T08:37:50.901Z,30.70
2023-02-08T08:40:18.787Z,30.80
2023-02-08T08:42:46.907Z,32.17
2023-02-08T08:45:14.726Z,29.95
2023-02-08T08:47:42.831Z,31.50
2023-02-08T08:50:10.875Z,31.15
2023-02-08T08:52:40.387Z,29.60
2023-02-08T08:55:10.341Z,29.73
2023-02-08T08:57:38.315Z,29.38
2023-02-08T09:00:06.756Z,32.45
2023-02-08T09:02:35.798Z,30.52
2023-02-08T09:05:05.373Z,33.10
2023-02-08T09:07:34.338Z,36.10
2023-02-08T09:10:02.226Z,33.45
2023-02-08T09:12:31.510Z,34.50
2023-02-08T09:14:59.361Z,34.95
2023-02-08T09:17:27.443Z,34.33
2023-02-08T09:19:55.291Z,31.02
2023-02-08T09:22:23.571Z,32.85
2023-02-08T09:24:53.406Z,33.75
2023-02-08T09:27:21.248Z,33.22
2023-02-08T09:29:50.560Z,29.20
2023-02-08T09:32:18.445Z,32.38
2023-02-08T09:34:46.417Z,30.88
2023-02-08T09:37:14.246Z,31.02
2023-02-08T09:39:42.127Z,30.00
2023-02-08T09:42:36.692Z,28.20
2023-02-08T09:45:31.962Z,27.55
2023-02-08T09:48:07.027Z,27.13
2023-02-08T09:50:39.486Z,28.48
2023-02-08T09:53:15.074Z,28.27
2023-02-08T09:55:47.172Z,33.22
2023-02-08T09:58:23.061Z,49.75
2023-02-08T10:00:54.354Z,37.90
2023-02-08T10:03:34.733Z,29.33
2023-02-08T10:06:03.394Z,27.20
2023-02-08T10:08:35.530Z,26.52
2023-02-08T10:11:17.879Z,27.05
2023-02-08T10:14:05.717Z,26.70
2023-02-08T10:16:59.917Z,23.15
2023-02-08T10:19:43.327Z,23.15
2023-02-08T10:22:24.128Z,21.55
2023-02-08T10:25:35.512Z,18.05
2023-02-08T10:28:31.386Z,16.27
2023-02-08T10:31:07.654Z,19.30
2023-02-08T10:33:43.703Z,20.15
2023-02-08T10:36:16.173Z,20.95
2023-02-08T10:38:46.845Z,20.30
2023-02-08T10:41:19.560Z,21.50
2023-02-08T10:43:52.496Z,17.85
2023-02-08T10:46:26.894Z,19.17
2023-02-08T10:49:08.237Z,17.35
2023-02-08T10:51:38.138Z,18.80
2023-02-08T10:54:06.471Z,19.15
2023-02-08T10:56:45.445Z,20.95
2023-02-08T10:59:18.570Z,19.25
2023-02-08T11:01:48.706Z,17.98
2023-02-08T11:06:47.133Z,16.60
2023-02-08T11:09:27.167Z,16.08
2023-02-08T11:11:55.873Z,16.80
2023-02-08T11:14:45.348Z,17.05
2023-02-08T11:17:27.048Z,16.45
2023-02-08T11:19:56.619Z,15.73
2023-02-08T11:22:26.282Z,15.82
2023-02-08T11:24:59.511Z,15.10
2023-02-08T11:27:34.056Z,14.45
2023-02-08T11:30:21.039Z,12.50
2023-02-08T11:32:51.228Z,12.45
2023-02-08T11:37:52.320Z,10.57
2023-02-08T11:40:23.699Z,10.02
2023-02-08T11:42:52.685Z,8.00
2023-02-08T11:45:23.456Z,9.05
2023-02-08T11:47:52.449Z,7.40
2023-02-08T11:50:28.096Z,7.25
2023-02-08T11:53:00.269Z,8.57
2023-02-08T11:55:30.326Z,7.70
2023-02-08T11:58:02.030Z,8.63
2023-02-08T12:00:34.053Z,8.20
2023-02-08T12:03:05.474Z,8.82
2023-02-08T12:05:45.274Z,8.57
2023-02-08T12:08:21.622Z,8.52
2023-02-08T12:11:04.726Z,8.50
2023-02-08T12:13:48.512Z,8.95
2023-02-08T12:16:34.206Z,9.38
2023-02-08T12:19:25.885Z,8.02
2023-02-08T12:22:02.480Z,7.70
2023-02-08T12:24:41.801Z,7.80
2023-02-08T12:27:27.332Z,5.37
2023-02-08T12:30:04.001Z,6.93
2023-02-08T12:33:04.941Z,7.18
2023-02-08T12:36:04.568Z,6.80
2023-02-08T12:39:24.689Z,6.90
2023-02-08T12:42:15.529Z,7.25
2023-02-08T12:45:00.343Z,8.65
2023-02-08T12:47:58.214Z,11.68
2023-02-08T12:50:35.980Z,7.75
2023-02-08T12:53:12.676Z,6.00
2023-02-08T12:55:44.424Z,6.70
2023-02-08T12:58:25.579Z,6.93
2023-02-08T13:00:56.535Z,5.80
2023-02-08T13:03:36.358Z,5.30
2023-02-08T13:06:07.448Z,4.57
2023-02-08T13:08:41.991Z,4.95
2023-02-08T13:11:20.232Z,5.65
2023-02-08T13:13:56.694Z,5.70
2023-02-08T13:16:28.599Z,5.15
2023-02-08T13:19:04.563Z,5.35
2023-02-08T13:21:38.163Z,4.80
2023-02-08T13:24:08.645Z,5.75
2023-02-08T13:26:40.530Z,6.07
2023-02-08T13:29:18.519Z,6.78
2023-02-08T13:31:52.558Z,6.03
2023-02-08T13:34:30.677Z,5.72
2023-02-08T13:37:01.862Z,6.80
2023-02-08T13:39:37.023Z,8.20
2023-02-08T13:42:09.559Z,8.20
2023-02-08T13:44:39.623Z,8.68
2023-02-08T13:47:08.837Z,9.80
2023-02-08T13:49:53.563Z,9.32
2023-02-08T13:52:53.144Z,8.73
2023-02-08T13:55:53.220Z,10.05
2023-02-08T13:58:37.329Z,9.68
2023-02-08T14:01:17.158Z,11.43
2023-02-08T14:03:45.640Z,11.57
2023-02-08T14:06:24.219Z,8.32
2023-02-08T14:08:58.110Z,8.88
2023-02-08T14:11:40.043Z,10.38
2023-02-08T14:14:19.563Z,9.00
2023-02-08T14:16:58.037Z,9.98
2023-02-08T14:19:26.368Z,10.15
2023-02-08T14:22:03.682Z,8.27
2023-02-08T14:24:34.439Z,8.73
2023-02-08T14:27:10.955Z,9.00
2023-02-08T14:29:40.291Z,10.75
2023-02-08T14:32:08.309Z,9.25
2023-02-08T14:34:39.179Z,11.82
2023-02-08T14:37:28.572Z,9.82
2023-02-08T14:40:29.922Z,9.43
2023-02-08T14:43:00.080Z,9.52
2023-02-08T14:45:31.857Z,9.07
2023-02-08T14:48:06.261Z,9.57
2023-02-08T14:50:43.746Z,9.00
2023-02-08T14:53:24.951Z,8.93
2023-02-08T14:55:57.716Z,8.48
2023-02-08T14:58:30.940Z,10.30
2023-02-08T15:01:03.363Z,9.65
2023-02-08T15:03:34.627Z,9.15
2023-02-08T15:06:27.143Z,9.48
2023-02-08T15:08:56.439Z,10.18
2023-02-08T15:11:27.218Z,10.73
2023-02-08T15:14:00.627Z,10.13
2023-02-08T15:16:35.156Z,9.55
2023-02-08T15:19:04.793Z,9.38
2023-02-08T15:21:36.938Z,9.57
2023-02-08T15:24:14.041Z,7.65
2023-02-08T15:26:46.254Z,8.95
2023-02-08T15:29:27.964Z,8.35
2023-02-08T15:32:02.178Z,8.45
2023-02-08T15:34:30.076Z,10.03
2023-02-08T15:36:58.371Z,10.10
2023-02-08T15:39:33.844Z,10.02
2023-02-08T15:42:02.409Z,12.40
2023-02-08T15:44:32.148Z,14.18
2023-02-08T15:47:03.169Z,11.77
2023-02-08T15:49:34.753Z,13.18
2023-02-08T15:52:03.668Z,11.25
2023-02-08T15:54:31.867Z,12.70
2023-02-08T15:57:04.594Z,25.67
2023-02-08T15:59:36.298Z,31.35
2023-02-08T16:02:23.621Z,28.13
2023-02-08T16:04:51.935Z,23.15
2023-02-08T16:07:28.401Z,21.33
2023-02-08T16:09:58.564Z,12.77
2023-02-08T16:12:28.942Z,12.15
2023-02-08T16:14:57.462Z,11.25
2023-02-08T16:17:38.436Z,10.95
2023-02-08T16:20:22.771Z,11.80
2023-02-08T16:22:57.046Z,12.05
2023-02-08T16:25:33.901Z,11.82
2023-02-08T16:28:02.670Z,12.15
2023-02-08T16:30:30.986Z,13.13
2023-02-08T16:33:07.609Z,12.77
2023-02-08T16:35:40.417Z,15.80
2023-02-08T16:38:10.304Z,31.13
2023-02-08T16:40:51.304Z,25.73
2023-02-08T16:43:22.442Z,23.20
2023-02-08T16:46:25.125Z,21.17
2023-02-08T16:48:56.505Z,19.55
2023-02-08T16:51:27.383Z,22.67
2023-02-08T16:53:57.743Z,21.50
2023-02-08T16:56:25.913Z,19.63
2023-02-08T16:58:53.994Z,17.92
2023-02-08T17:01:24.017Z,17.80
2023-02-08T17:03:53.147Z,16.42
2023-02-08T17:06:28.469Z,14.50
2023-02-08T17:08:56.790Z,12.70
2023-02-08T17:11:24.629Z,13.50
2023-02-08T17:13:53.132Z,13.65
2023-02-08T17:16:23.055Z,14.00
2023-02-08T17:18:51.624Z,13.68
2023-02-08T17:21:19.497Z,13.25
2023-02-08T17:23:48.721Z,13.35
2023-02-08T17:26:22.324Z,13.60
2023-02-08T17:28:51.478Z,13.30
2023-02-08T17:31:19.617Z,15.18
2023-02-08T17:33:48.372Z,14.20
2023-02-08T17:36:16.945Z,13.75
2023-02-08T17:38:46.631Z,16.92
2023-02-08T17:41:18.502Z,21.73
2023-02-08T17:43:47.560Z,20.02
2023-02-08T17:46:17.841Z,19.25
2023-02-08T17:48:48.168Z,22.27
2023-02-08T17:51:17.756Z,25.42
2023-02-08T17:53:46.063Z,35.23
2023-02-08T17:56:18.002Z,31.67
2023-02-08T17:58:48.932Z,32.63
2023-02-08T18:01:21.486Z,30.13
2023-02-08T18:06:18.620Z,28.02
2023-02-08T18:08:46.847Z,26.45
2023-02-08T18:11:20.150Z,26.25
2023-02-08T18:13:49.706Z,27.30
2023-02-08T18:16:19.846Z,23.98
2023-02-08T18:18:47.889Z,25.88
2023-02-08T18:21:18.000Z,24.58
2023-02-08T18:26:17.903Z,23.42
2023-02-08T18:28:46.402Z,24.65
2023-02-08T18:31:16.752Z,24.88
2023-02-08T18:33:45.016Z,25.88
2023-02-08T18:36:13.526Z,22.67
2023-02-08T18:38:45.452Z,24.80
2023-02-08T18:41:15.562Z,24.67
2023-02-08T18:46:18.119Z,26.13
2023-02-08T18:48:47.627Z,24.63
2023-02-08T18:51:19.694Z,24.95
2023-02-08T18:53:50.429Z,22.92
2023-02-08T18:56:21.445Z,23.02
2023-02-08T18:58:51.694Z,23.70
2023-02-08T19:01:22.385Z,23.30
2023-02-08T19:03:51.753Z,22.92
2023-02-08T19:06:22.819Z,28.20
2023-02-08T19:08:52.614Z,28.65
2023-02-08T19:11:22.740Z,28.15
2023-02-08T19:16:22.430Z,27.80
2023-02-08T19:18:50.484Z,27.83
2023-02-08T19:21:19.139Z,27.85
2023-02-08T19:23:47.757Z,26.63
2023-02-08T19:26:19.177Z,26.23
2023-02-08T19:28:47.248Z,26.40
2023-02-08T19:31:19.303Z,23.33
2023-02-08T19:33:49.498Z,24.88
2023-02-08T19:38:46.299Z,21.98
2023-02-08T19:41:17.060Z,24.10
2023-02-08T19:43:45.625Z,26.75
2023-02-08T19:46:14.906Z,26.65
2023-02-08T19:48:44.373Z,23.93
2023-02-08T19:51:12.284Z,22.35
2023-02-08T19:53:40.204Z,20.08
2023-02-08T19:56:10.008Z,20.95
2023-02-08T19:58:38.634Z,19.52
2023-02-08T20:01:08.169Z,21.42
2023-02-08T20:03:36.261Z,23.83
2023-02-08T20:06:06.292Z,26.48
2023-02-08T20:11:01.864Z,28.23
2023-02-08T20:13:29.759Z,28.63
2023-02-08T20:16:00.018Z,35.45
2023-02-08T20:18:28.018Z,38.92
2023-02-08T20:21:03.184Z,37.38
2023-02-08T20:23:33.069Z,34.80
2023-02-08T20:28:33.765Z,35.70
2023-02-08T20:31:01.738Z,33.85
2023-02-08T20:33:29.786Z,31.38
2023-02-08T20:35:57.690Z,29.50
2023-02-08T20:38:25.538Z,28.60
2023-02-08T20:41:02.464Z,30.50
2023-02-08T20:43:30.605Z,33.83
2023-02-08T20:45:58.512Z,34.88
2023-02-08T20:48:26.866Z,29.63
2023-02-08T20:50:54.629Z,26.38
2023-02-08T20:53:22.968Z,28.48
2023-02-08T20:55:50.793Z,24.60
2023-02-08T20:58:19.985Z,27.58
2023-02-08T21:00:47.839Z,23.93
2023-02-08T21:03:15.779Z,23.67
2023-02-08T21:05:43.546Z,24.50
2023-02-08T21:08:11.357Z,24.75
2023-02-08T21:10:39.285Z,23.08
2023-02-08T21:13:07.139Z,25.08
2023-02-08T21:15:36.534Z,27.45
2023-02-08T21:18:04.550Z,26.88
2023-02-08T21:20:32.400Z,22.73
2023-02-08T21:23:00.240Z,22.27
2023-02-08T21:25:28.188Z,26.40
2023-02-08T21:27:57.593Z,28.17
2023-02-08T21:30:25.613Z,37.50
2023-02-08T21:32:54.777Z,38.63
2023-02-08T21:35:22.659Z,31.80
2023-02-08T21:37:50.481Z,30.67
2023-02-08T21:40:18.497Z,35.58
2023-02-08T21:42:46.339Z,34.92
2023-02-08T21:45:14.576Z,32.45
2023-02-08T21:47:42.568Z,31.02
2023-02-08T21:50:29.556Z,31.17
2023-02-08T21:53:14.842Z,21.75
2023-02-08T21:55:46.520Z,21.60
2023-02-08T21:58:14.865Z,20.17
2023-02-08T22:00:42.948Z,22.45
2023-02-08T22:03:11.229Z,20.33
2023-02-08T22:05:57.717Z,20.88
2023-02-08T22:08:25.754Z,19.05
2023-02-08T22:10:58.421Z,18.98
2023-02-08T22:13:26.722Z,19.25
2023-02-08T22:15:54.618Z,19.88
2023-02-08T22:18:22.862Z,19.80
2023-02-08T22:20:53.509Z,17.77
2023-02-08T22:23:21.643Z,15.98
2023-02-08T22:25:49.485Z,17.35
2023-02-08T22:28:17.412Z,17.52
2023-02-08T22:30:48.458Z,15.48
2023-02-08T22:33:16.501Z,15.40
2023-02-08T22:35:44.285Z,16.85
2023-02-08T22:38:13.488Z,16.38
2023-02-08T22:40:42.964Z,12.37
2023-02-08T22:43:11.064Z,15.98
2023-02-08T22:45:39.147Z,15.57
2023-02-08T22:48:07.021Z,17.45
2023-02-08T22:50:35.075Z,17.48
2023-02-08T22:53:02.908Z,17.70
2023-02-08T22:55:32.162Z,18.38
2023-02-08T22:57:59.993Z,18.07
2023-02-08T23:00:27.925Z,18.15
2023-02-08T23:02:55.864Z,16.23
2023-02-08T23:05:23.752Z,16.45
2023-02-08T23:07:51.662Z,18.65
2023-02-08T23:10:19.616Z,17.80
2023-02-08T23:12:48.845Z,17.38
2023-02-08T23:15:16.983Z,16.67
2023-02-08T23:17:44.882Z,17.90
2023-02-08T23:20:13.078Z,17.35
2023-02-08T23:22:40.904Z,17.00
2023-02-08T23:25:08.971Z,16.60
2023-02-08T23:27:37.269Z,18.08
2023-02-08T23:30:09.509Z,18.15
2023-02-08T23:32:37.728Z,18.65
2023-02-08T23:35:05.912Z,19.33
2023-02-08T23:37:33.781Z,18.33
2023-02-08T23:40:01.762Z,18.50
2023-02-08T23:42:29.587Z,18.63
2023-02-08T23:44:59.144Z,17.60
2023-02-08T23:47:29.945Z,19.52
2023-02-08T23:49:57.767Z,18.58
2023-02-08T23:52:25.914Z,18.73
2023-02-08T23:54:54.727Z,17.73
2023-02-08T23:57:22.547Z,18.15
2023-02-08T23:59:50.399Z,18.63
